Airfield :
LOGIN :

Register | Disclaimer

   EN    FR    IT 

 










Legend :    VFR   Marginal VFR   IFR   Intensive IFR   Very Intensive IFR
Visi :
Ceiling :
>= 8 km
>= 3000ft
5 to 8 km
1000 to 3000 ft
1500m to 5 km
500 to 1000 ft
800 to 1500m
200 to 500 ft
< 800m
< 200 ft
Symbols :   Thunderstorms  Fog  Heavy snow  Heavy precipitations  Wind > 20 kt
SIGMETs :     Misc.  Thunderstorms  Icing  Turbulence  Mountain Waves  Volcanic Ashes







- Airport Elevation : 14 ft
- IATA code : BRE


EDDW - Bremen Neuenland

CURRENT METAR :
  • 160820Z 13009KT 100V160 9000 FEW031 M01/M04 Q1012 NOSIG

EXPIRED METARs :
  • 160750Z 13010KT 9000 NSC M01/M03 Q1012 NOSIG
  • 160720Z 13010KT CAVOK M01/M04 Q1012 NOSIG
  • 160650Z 12010KT CAVOK M01/M04 Q1012 NOSIG
  • 160620Z 13012KT CAVOK M01/M04 Q1013 NOSIG
  • 160550Z 12012KT CAVOK M01/M04 Q1013 NOSIG

TAF TAF EDDW
Valid from the 16 at 06:00 until the 17 at 06:00 UTC


160500Z 1606/1706 12012KT 9999 BKN025
PROB40
TEMPO 1606/1609 12015G25KT
BECMG 1613/1615 12007KT BKN013
TEMPO 1613/1702 2500 -SN BKN007
PROB40
TEMPO 1615/1624 BKN004
PROB30
TEMPO 1617/1702 -FZDZ
BECMG 1618/1621 VRB03KT 3500 BR OVC007
PROB30
TEMPO 1621/1706 0500 FG OVC004
No reported NOTAMs for that airfield.
1 SIGMET reported for the Bremen FIR (EDWW) :
 
Severe icing
EDWW SIGMET 1 VALID 160730/160900 EDZH
EDWW BREMEN FIR SEV ICE FCST WI N5444 E00630 - N5312 E00747 - N5218 E00822 - N5208 E00832 - N5218 E00723 - N5341 E00632 - N5444 E00630 0500FT/FL080 MOV ENE 10KT WKN=



MET'MAP, your aeronautical weather chart ! - Copyright ORBIFLY December 2007 - Disclaimer

ORBIFLY MET'MAP TEAM :

Programming & Development : Alexandra Zaïnal
Concept & Development : Baudouin d'Aumeries
Co-Development & Prog : Marc-Olivier Méhu
Technical & hardware support : Manuel Goepfert

Contact : metmap@orbifly.com




SOURCES & CREDITS :

   NOAA